Time;durP1;ratioP1;P1;durP2;ratioP2;P2;SDS_P1;SDS_P2;PMS_P1;PMS_P2;Temp;Humidity;BMP_temperature;BMP_pressure;BME280_temperature;BME280_humidity;BME280_pressure;Samples;Min_cycle;Max_cycle;Signal;HPM_P1;HPM_P2
2022/04/21 00:00:20;;;;;;;3.03;2.27;;;7.40;99.90;;;;;;4902392;29;20669;-82
2022/04/21 00:02:45;;;;;;;3.40;2.13;;;7.40;99.90;;;;;;4917725;29;20222;-81
2022/04/21 00:05:12;;;;;;;5.50;2.50;;;7.30;99.90;;;;;;4917780;29;20189;-83
2022/04/21 00:07:39;;;;;;;3.23;2.27;;;7.30;99.90;;;;;;4918960;29;20274;-82
2022/04/21 00:10:07;;;;;;;7.13;2.50;;;7.20;99.90;;;;;;4919305;29;20253;-83
2022/04/21 00:12:36;;;;;;;3.50;2.47;;;7.20;99.90;;;;;;4919037;29;20202;-83
2022/04/21 00:15:06;;;;;;;5.77;2.50;;;7.20;99.90;;;;;;4917837;29;20602;-82
2022/04/21 00:17:32;;;;;;;3.43;2.27;;;7.20;99.90;;;;;;4918833;29;20561;-82
2022/04/21 00:19:59;;;;;;;3.77;2.70;;;7.20;99.90;;;;;;5247783;23;20695;-81
2022/04/21 00:25:09;;;;;;;2.63;2.17;;;7.30;99.90;;;;;;4937829;29;20607;-81
2022/04/21 00:27:39;;;;;;;3.07;2.10;;;7.30;99.90;;;;;;4937726;29;20269;-81
2022/04/21 00:30:08;;;;;;;4.00;2.30;;;7.30;99.90;;;;;;4937613;29;20209;-81
2022/04/21 00:32:35;;;;;;;4.40;2.63;;;7.30;99.90;;;;;;4938725;29;20204;-81
2022/04/21 00:35:02;;;;;;;2.87;2.20;;;7.30;99.90;;;;;;4937977;29;20204;-80
2022/04/21 00:37:28;;;;;;;4.73;2.80;;;7.30;99.90;;;;;;4955138;29;20173;-80
2022/04/21 00:39:55;;;;;;;2.87;2.53;;;7.20;99.90;;;;;;4955458;29;20195;-80
2022/04/21 00:42:20;;;;;;;5.93;2.60;;;7.10;99.90;;;;;;4956351;28;20271;-81
2022/04/21 00:44:49;;;;;;;3.40;2.50;;;7.00;99.90;;;;;;4955889;29;20733;-79
2022/04/21 00:47:15;;;;;;;4.37;2.70;;;7.00;99.90;;;;;;4956245;28;20185;-80
2022/04/21 00:49:40;;;;;;;4.47;2.87;;;6.90;99.90;;;;;;4956019;29;20235;-79
2022/04/21 00:52:07;;;;;;;4.57;2.63;;;6.80;99.90;;;;;;4955993;29;20189;-80
2022/04/21 00:54:33;;;;;;;3.27;2.40;;;6.70;99.90;;;;;;4955487;29;20174;-80
2022/04/21 00:57:04;;;;;;;5.90;3.10;;;6.60;99.90;;;;;;4954482;28;20192;-80
2022/04/21 00:59:30;;;;;;;5.67;3.07;;;6.60;99.90;;;;;;4956227;28;20205;-80
2022/04/21 01:04:41;;;;;;;4.40;2.80;;;6.60;99.90;;;;;;4956697;29;20193;-80
2022/04/21 01:07:11;;;;;;;5.03;3.37;;;6.60;99.90;;;;;;4956009;28;20530;-79
2022/04/21 01:09:38;;;;;;;4.83;2.90;;;6.60;99.90;;;;;;4956138;28;20192;-81
2022/04/21 01:12:08;;;;;;;6.13;2.87;;;6.50;99.90;;;;;;4956152;28;20200;-80
2022/04/21 01:14:37;;;;;;;3.83;2.50;;;6.50;99.90;;;;;;4955081;29;20288;-79
2022/04/21 01:17:03;;;;;;;5.30;2.60;;;6.40;99.90;;;;;;4956261;28;20695;-81
2022/04/21 01:19:29;;;;;;;4.40;2.60;;;6.40;99.90;;;;;;4956134;28;20317;-81
2022/04/21 01:21:55;;;;;;;3.30;2.30;;;6.30;99.90;;;;;;4955737;28;20303;-79
2022/04/21 01:24:21;;;;;;;4.00;2.60;;;6.40;99.90;;;;;;4956119;28;20177;-80
2022/04/21 01:26:47;;;;;;;4.13;2.70;;;6.30;99.90;;;;;;4954956;29;20181;-81
2022/04/21 01:29:14;;;;;;;4.77;2.90;;;6.30;99.90;;;;;;4956076;28;20204;-80
2022/04/21 01:31:40;;;;;;;3.27;2.23;;;6.30;99.90;;;;;;4955128;29;20311;-81
2022/04/21 01:34:05;;;;;;;4.23;2.47;;;6.30;99.90;;;;;;4954879;29;20632;-80
2022/04/21 01:36:31;;;;;;;4.27;2.47;;;6.30;99.90;;;;;;4954476;29;20185;-80
2022/04/21 01:41:41;;;;;;;4.63;2.67;;;6.20;99.90;;;;;;4956076;29;20658;-79
2022/04/21 01:44:07;;;;;;;4.40;2.63;;;6.20;99.90;;;;;;4956179;28;20249;-80
2022/04/21 01:46:33;;;;;;;3.73;2.53;;;6.10;99.90;;;;;;4956415;28;20187;-80
2022/04/21 01:48:59;;;;;;;5.63;2.40;;;6.20;99.90;;;;;;4954634;29;20236;-80
2022/04/21 01:51:25;;;;;;;4.93;2.37;;;6.10;99.90;;;;;;4955701;28;20182;-82
2022/04/21 01:53:50;;;;;;;2.87;2.47;;;6.10;99.90;;;;;;4954747;29;20272;-81
2022/04/21 01:56:16;;;;;;;5.43;3.03;;;6.10;99.90;;;;;;4956323;28;20177;-81
2022/04/21 01:58:42;;;;;;;3.33;2.30;;;6.10;99.90;;;;;;4956157;28;20260;-83
2022/04/21 02:01:08;;;;;;;3.40;2.33;;;6.00;99.90;;;;;;4954898;29;20223;-82
2022/04/21 02:03:34;;;;;;;4.00;2.40;;;6.10;99.90;;;;;;4955980;28;20268;-85
2022/04/21 02:06:00;;;;;;;3.57;2.50;;;6.10;99.90;;;;;;4955939;28;20210;-82
2022/04/21 02:08:31;;;;;;;4.60;2.67;;;6.10;99.90;;;;;;4957313;28;20204;-83
2022/04/21 02:10:57;;;;;;;3.90;2.37;;;6.10;99.90;;;;;;4959892;28;20174;-82
2022/04/21 02:13:23;;;;;;;3.30;2.40;;;6.10;99.90;;;;;;4959361;28;20181;-84
2022/04/21 02:15:48;;;;;;;4.00;2.43;;;6.20;99.90;;;;;;4959692;29;20166;-80
2022/04/21 02:18:14;;;;;;;3.07;2.30;;;6.30;99.90;;;;;;4959208;29;20604;-83
2022/04/21 02:20:40;;;;;;;4.03;2.27;;;6.40;99.90;;;;;;4958033;29;20702;-79
2022/04/21 02:23:05;;;;;;;3.83;2.57;;;6.30;99.90;;;;;;4959087;29;20201;-83
2022/04/21 02:25:31;;;;;;;5.33;2.53;;;6.20;99.90;;;;;;4958158;29;20177;-80
2022/04/21 02:27:57;;;;;;;5.00;2.60;;;6.20;99.90;;;;;;4957378;29;20281;-81
2022/04/21 02:30:22;;;;;;;5.17;2.47;;;6.30;99.90;;;;;;4958512;29;20576;-81
2022/04/21 02:32:48;;;;;;;5.83;2.93;;;6.30;99.90;;;;;;4958719;29;20180;-80
2022/04/21 02:35:15;;;;;;;2.90;2.30;;;6.30;99.90;;;;;;4957797;29;20275;-80
2022/04/21 02:37:43;;;;;;;3.93;2.50;;;6.40;99.90;;;;;;4958739;28;20177;-80
2022/04/21 02:40:10;;;;;;;4.93;2.20;;;6.40;99.90;;;;;;4959061;28;20180;-81
2022/04/21 02:42:39;;;;;;;3.80;2.50;;;6.30;99.90;;;;;;4958838;28;20224;-83
2022/04/21 02:45:12;;;;;;;3.83;2.63;;;6.30;99.90;;;;;;4957647;29;20261;-81
2022/04/21 02:47:40;;;;;;;5.30;2.67;;;6.20;99.90;;;;;;4958657;28;20213;-80
2022/04/21 02:50:07;;;;;;;3.63;2.80;;;6.20;99.90;;;;;;4957373;29;20189;-80
2022/04/21 02:52:37;;;;;;;4.67;2.50;;;6.20;99.90;;;;;;4958430;28;20224;-82
2022/04/21 02:57:47;;;;;;;3.27;2.20;;;6.20;99.90;;;;;;4958664;29;20172;-82
2022/04/21 03:00:13;;;;;;;4.73;2.50;;;6.20;99.90;;;;;;4958646;29;20185;-79
2022/04/21 03:02:39;;;;;;;3.40;2.30;;;6.30;99.90;;;;;;4958612;29;20267;-81
2022/04/21 03:05:06;;;;;;;3.60;2.40;;;6.30;99.90;;;;;;4957574;29;20169;-81
2022/04/21 03:07:31;;;;;;;3.53;2.50;;;6.20;99.90;;;;;;4956838;29;20220;-82
2022/04/21 03:09:57;;;;;;;5.90;2.47;;;6.10;99.90;;;;;;4958673;28;20173;-84
2022/04/21 03:12:26;;;;;;;3.43;2.57;;;6.00;99.90;;;;;;4958331;28;20608;-84
2022/04/21 03:14:52;;;;;;;3.23;2.37;;;6.10;99.90;;;;;;4957454;28;20521;-83
2022/04/21 03:17:18;;;;;;;4.83;2.80;;;6.10;99.90;;;;;;4957334;29;20181;-85
2022/04/21 03:19:44;;;;;;;2.73;2.30;;;6.10;99.90;;;;;;4957491;28;20169;-83
2022/04/21 03:24:58;;;;;;;3.63;2.30;;;6.10;99.90;;;;;;4958346;29;20201;-82
2022/04/21 03:27:28;;;;;;;5.70;3.10;;;6.10;99.90;;;;;;4958084;28;20262;-83
2022/04/21 03:29:58;;;;;;;5.00;2.80;;;6.20;99.90;;;;;;4957237;28;20182;-84
2022/04/21 03:32:25;;;;;;;4.00;2.70;;;6.20;99.90;;;;;;4957970;28;20188;-85
2022/04/21 03:34:50;;;;;;;3.67;2.73;;;6.20;99.90;;;;;;4958188;28;20518;-82
2022/04/21 03:37:18;;;;;;;5.73;2.77;;;6.20;99.90;;;;;;4957720;28;20212;-83
2022/04/21 03:39:44;;;;;;;4.80;2.83;;;6.20;99.90;;;;;;4956515;29;20178;-82
2022/04/21 03:42:24;;;;;;;4.70;2.40;;;6.20;99.90;;;;;;4956597;29;20217;-82
2022/04/21 03:44:51;;;;;;;3.97;2.80;;;6.10;99.90;;;;;;4957678;28;20206;-81
2022/04/21 03:47:17;;;;;;;4.80;3.10;;;6.00;99.90;;;;;;4956289;29;20217;-80
2022/04/21 03:49:43;;;;;;;5.50;2.70;;;6.00;99.90;;;;;;4956217;29;20189;-81
2022/04/21 03:52:12;;;;;;;3.60;2.73;;;5.90;99.90;;;;;;4956869;29;20193;-80
2022/04/21 03:54:39;;;;;;;3.90;2.77;;;6.00;99.90;;;;;;4956222;29;20339;-80
2022/04/21 03:57:05;;;;;;;4.00;2.60;;;6.00;99.90;;;;;;4956125;29;20182;-80
2022/04/21 03:59:32;;;;;;;4.53;2.60;;;6.10;99.90;;;;;;4957307;28;20186;-81
2022/04/21 04:02:03;;;;;;;2.97;2.53;;;6.10;99.90;;;;;;4957164;28;20215;-80
2022/04/21 04:04:30;;;;;;;5.80;2.77;;;6.30;99.90;;;;;;4957318;28;20576;-80
2022/04/21 04:12:33;;;;;;;6.10;2.60;;;6.40;99.90;;;;;;4957166;29;20168;-81
2022/04/21 04:14:59;;;;;;;5.90;2.67;;;6.40;99.90;;;;;;4955809;28;20183;-79
2022/04/21 04:17:26;;;;;;;4.57;2.97;;;6.40;99.90;;;;;;4954630;29;20196;-79
2022/04/21 04:19:52;;;;;;;5.40;2.70;;;6.40;99.90;;;;;;4956363;28;20670;-80
2022/04/21 04:22:17;;;;;;;4.13;2.70;;;6.40;99.90;;;;;;4955406;29;20300;-81
2022/04/21 04:24:47;;;;;;;3.87;2.30;;;6.40;99.90;;;;;;4955863;29;20188;-80
2022/04/21 04:27:13;;;;;;;4.70;2.80;;;6.50;99.90;;;;;;4955644;29;20213;-81
2022/04/21 04:29:38;;;;;;;3.97;2.20;;;6.50;99.90;;;;;;4955498;29;20208;-82
2022/04/21 04:32:05;;;;;;;6.47;2.40;;;6.50;99.90;;;;;;4956046;28;20257;-80
2022/04/21 04:34:30;;;;;;;5.40;2.50;;;6.60;99.90;;;;;;4955328;29;20188;-80
2022/04/21 04:36:56;;;;;;;5.30;2.57;;;6.60;99.90;;;;;;4956553;28;20181;-80
2022/04/21 04:39:22;;;;;;;3.90;2.70;;;6.60;99.90;;;;;;4956620;29;20196;-80
2022/04/21 04:44:32;;;;;;;6.80;2.73;;;6.50;99.90;;;;;;4956716;29;20184;-80
2022/04/21 04:46:57;;;;;;;7.03;2.83;;;6.50;99.90;;;;;;4956501;29;20185;-79
2022/04/21 04:49:24;;;;;;;4.23;2.70;;;6.50;99.90;;;;;;4955187;29;20253;-80
2022/04/21 04:51:50;;;;;;;3.87;2.60;;;6.50;99.90;;;;;;4956311;29;20620;-80
2022/04/21 04:54:17;;;;;;;7.00;2.33;;;6.60;99.90;;;;;;4956251;28;20204;-80
2022/04/21 04:56:45;;;;;;;3.40;2.60;;;6.70;99.90;;;;;;4956306;29;20565;-80
2022/04/21 04:59:11;;;;;;;4.53;2.53;;;6.80;99.90;;;;;;4956249;28;20176;-81
2022/04/21 05:01:42;;;;;;;4.07;2.40;;;6.80;99.90;;;;;;4955321;28;20352;-80
2022/04/21 05:04:11;;;;;;;7.27;3.17;;;6.90;99.90;;;;;;4954953;29;20181;-81
2022/04/21 05:06:45;;;;;;;8.53;3.23;;;7.00;99.90;;;;;;4956272;28;20176;-82
2022/04/21 05:09:13;;;;;;;6.73;3.20;;;7.00;99.90;;;;;;4954806;29;20268;-82
2022/04/21 05:11:41;;;;;;;5.30;2.70;;;7.00;99.90;;;;;;4956279;28;20177;-82
2022/04/21 05:14:07;;;;;;;5.37;2.77;;;7.00;99.90;;;;;;4954992;29;20192;-81
2022/04/21 05:16:36;;;;;;;6.40;2.70;;;7.00;99.90;;;;;;4955566;28;20560;-81
2022/04/21 05:19:09;;;;;;;4.13;2.60;;;7.00;99.90;;;;;;4953683;29;20691;-81
2022/04/21 05:21:36;;;;;;;5.40;2.77;;;7.00;99.90;;;;;;4954183;29;20245;-80
2022/04/21 05:24:03;;;;;;;6.97;3.03;;;7.00;99.90;;;;;;4955926;28;20177;-79
2022/04/21 05:26:30;;;;;;;6.10;2.87;;;7.00;99.90;;;;;;4956070;28;20177;-80
2022/04/21 05:28:58;;;;;;;4.10;2.83;;;7.10;99.90;;;;;;4954664;28;20575;-81
2022/04/21 05:31:26;;;;;;;5.73;3.20;;;7.10;99.90;;;;;;4953767;29;20256;-81
2022/04/21 05:33:55;;;;;;;4.80;2.80;;;7.10;99.90;;;;;;4954665;29;20535;-79
2022/04/21 05:36:22;;;;;;;7.10;3.03;;;7.10;99.90;;;;;;4955561;28;20174;-79
2022/04/21 05:38:51;;;;;;;7.77;3.50;;;7.20;99.90;;;;;;4954549;29;20185;-81
2022/04/21 05:41:18;;;;;;;7.93;3.53;;;7.10;99.90;;;;;;4955831;28;20252;-81
2022/04/21 05:43:46;;;;;;;7.17;3.73;;;7.10;99.90;;;;;;4958065;28;20170;-80
2022/04/21 05:46:16;;;;;;;5.17;3.27;;;7.10;99.90;;;;;;4959510;28;20165;-80
2022/04/21 05:48:42;;;;;;;4.97;3.10;;;7.20;99.90;;;;;;4959593;28;20635;-79
2022/04/21 05:51:10;;;;;;;6.17;2.83;;;7.10;99.90;;;;;;4957658;28;20631;-81
2022/04/21 05:53:37;;;;;;;6.00;3.43;;;7.10;99.90;;;;;;4936845;29;20185;-81
2022/04/21 05:56:05;;;;;;;4.23;2.80;;;7.10;99.90;;;;;;4940116;29;20170;-80
2022/04/21 05:58:31;;;;;;;6.40;3.37;;;7.10;99.90;;;;;;4950646;29;20289;-83
2022/04/21 06:00:59;;;;;;;8.73;3.50;;;7.10;99.90;;;;;;4957798;29;20189;-81
2022/04/21 06:03:25;;;;;;;6.40;3.03;;;7.20;99.90;;;;;;4959144;28;20521;-85
2022/04/21 06:05:51;;;;;;;6.87;3.33;;;7.20;99.90;;;;;;4958320;29;20601;-83
2022/04/21 06:08:17;;;;;;;6.67;3.07;;;7.20;99.90;;;;;;4958446;29;20522;-83
2022/04/21 06:10:42;;;;;;;4.23;2.73;;;7.20;99.90;;;;;;4959298;28;20173;-81
2022/04/21 06:13:08;;;;;;;5.20;3.13;;;7.30;99.90;;;;;;4959133;29;20236;-83
2022/04/21 06:15:34;;;;;;;6.37;3.50;;;7.30;99.90;;;;;;4957759;29;20181;-83
2022/04/21 06:18:00;;;;;;;4.47;2.87;;;7.30;99.90;;;;;;4957453;29;20169;-83
2022/04/21 06:20:27;;;;;;;5.43;2.77;;;7.30;99.90;;;;;;4957444;29;20259;-82
2022/04/21 06:22:54;;;;;;;9.33;3.10;;;7.40;99.90;;;;;;4957221;29;20686;-82
2022/04/21 06:25:21;;;;;;;7.80;2.90;;;7.50;99.90;;;;;;4958902;28;20173;-81
2022/04/21 06:27:47;;;;;;;5.97;2.80;;;7.40;99.90;;;;;;4957439;29;20527;-81
2022/04/21 06:30:13;;;;;;;6.73;2.90;;;7.50;99.90;;;;;;4958786;28;20643;-83
2022/04/21 06:32:39;;;;;;;7.07;3.03;;;7.50;99.90;;;;;;4957620;29;20181;-82
2022/04/21 06:35:05;;;;;;;5.17;2.93;;;7.60;99.90;;;;;;4957544;29;20605;-80
2022/04/21 06:37:31;;;;;;;6.93;2.87;;;7.60;99.90;;;;;;4946647;28;20174;-83
2022/04/21 06:39:56;;;;;;;3.80;2.80;;;7.60;99.90;;;;;;4937964;29;20195;-81
2022/04/21 06:42:22;;;;;;;3.90;2.57;;;7.60;99.90;;;;;;4937970;29;20210;-82
2022/04/21 06:50:16;;;;;;;7.37;3.43;;;7.60;99.90;;;;;;4939930;29;20279;-87
2022/04/21 06:52:42;;;;;;;4.63;3.10;;;7.70;99.90;;;;;;4939296;29;20182;-80
2022/04/21 06:55:08;;;;;;;6.77;2.97;;;7.70;99.90;;;;;;4938262;29;20178;-81
2022/04/21 06:57:34;;;;;;;6.73;3.73;;;7.70;99.90;;;;;;4937736;29;20186;-81
2022/04/21 07:00:00;;;;;;;374.77;208.27;;;7.80;99.90;;;;;;4938000;29;20186;-86
2022/04/21 07:02:33;;;;;;;12.17;5.60;;;7.80;99.90;;;;;;4954444;29;20595;-82
2022/04/21 07:05:06;;;;;;;8.10;5.93;;;7.80;99.90;;;;;;4958651;28;20177;-82
2022/04/21 07:07:32;;;;;;;6.87;3.50;;;7.90;99.90;;;;;;4957662;29;20518;-83
2022/04/21 07:09:58;;;;;;;46.33;41.87;;;7.90;99.90;;;;;;4957737;29;20181;-82
2022/04/21 07:12:30;;;;;;;5.37;3.50;;;8.00;99.90;;;;;;4957401;29;20655;-85
2022/04/21 07:14:57;;;;;;;6.00;3.07;;;8.00;99.90;;;;;;4958834;28;20184;-82
2022/04/21 07:17:23;;;;;;;5.40;3.00;;;8.10;99.90;;;;;;4958356;28;20228;-85
2022/04/21 07:19:49;;;;;;;10.73;3.80;;;8.20;99.90;;;;;;4958257;28;20205;-83
2022/04/21 07:22:15;;;;;;;10.90;5.03;;;8.20;99.90;;;;;;4955839;29;20221;-84
2022/04/21 07:24:41;;;;;;;7.00;3.47;;;8.30;99.90;;;;;;4958477;29;20256;-85
2022/04/21 07:27:07;;;;;;;5.40;2.93;;;8.40;99.90;;;;;;4956711;29;20177;-84
2022/04/21 07:29:34;;;;;;;5.97;3.20;;;8.50;99.90;;;;;;4958216;29;20178;-83
2022/04/21 07:32:00;;;;;;;4.83;3.07;;;8.60;99.90;;;;;;4957532;29;20185;-86
2022/04/21 07:34:25;;;;;;;6.10;2.70;;;8.70;99.90;;;;;;4957815;29;20640;-85
2022/04/21 07:36:51;;;;;;;6.30;4.40;;;8.80;99.90;;;;;;4956437;29;20189;-85
2022/04/21 07:39:18;;;;;;;4.50;2.87;;;8.90;99.90;;;;;;4956636;28;20671;-84
2022/04/21 07:41:44;;;;;;;5.07;3.27;;;8.90;99.90;;;;;;4956792;29;20212;-84
2022/04/21 07:44:10;;;;;;;6.93;5.33;;;9.00;99.90;;;;;;4957076;29;20631;-86
2022/04/21 07:46:36;;;;;;;12.70;8.77;;;9.00;99.90;;;;;;4957345;29;20504;-85
2022/04/21 07:51:46;;;;;;;6.43;3.63;;;8.90;99.90;;;;;;4957693;29;20619;-82
2022/04/21 07:54:12;;;;;;;5.47;3.53;;;8.90;99.90;;;;;;4955257;29;20276;-84
2022/04/21 07:56:38;;;;;;;4.90;2.90;;;8.90;99.90;;;;;;4947255;29;20186;-83
2022/04/21 07:59:03;;;;;;;3.53;2.50;;;9.00;99.90;;;;;;4943999;29;20207;-83
2022/04/21 08:01:29;;;;;;;6.83;3.50;;;9.10;99.90;;;;;;4955062;29;20200;-84
2022/04/21 08:03:55;;;;;;;7.13;3.10;;;9.10;99.90;;;;;;4955854;29;20201;-85
2022/04/21 08:06:21;;;;;;;4.10;2.73;;;9.20;99.90;;;;;;4955569;28;20570;-84
2022/04/21 08:08:47;;;;;;;6.97;3.63;;;9.30;99.90;;;;;;4955501;29;20181;-84
2022/04/21 08:11:12;;;;;;;5.80;3.47;;;9.40;99.90;;;;;;4957054;28;20196;-82
2022/04/21 08:13:38;;;;;;;9.97;3.50;;;9.40;99.90;;;;;;4954464;29;20184;-84
2022/04/21 08:16:04;;;;;;;6.33;3.10;;;9.50;99.90;;;;;;4954394;29;20276;-84
2022/04/21 08:18:30;;;;;;;8.10;3.47;;;9.80;99.90;;;;;;4955430;29;20559;-81
2022/04/21 08:20:59;;;;;;;4.90;2.77;;;9.80;99.90;;;;;;4956650;29;20232;-82
2022/04/21 08:23:25;;;;;;;7.70;3.50;;;10.00;99.90;;;;;;4956765;28;20703;-82
2022/04/21 08:34:05;;;;;;;8.43;3.03;;;10.60;99.90;;;;;;4956375;29;20675;-86
2022/04/21 08:36:31;;;;;;;9.40;3.20;;;10.70;99.90;;;;;;4955348;29;20185;-85
2022/04/21 08:38:57;;;;;;;6.57;3.10;;;10.60;99.90;;;;;;4956653;29;20188;-85
2022/04/21 08:41:27;;;;;;;7.97;3.60;;;10.50;99.90;;;;;;4955393;29;20188;-85
2022/04/21 08:43:56;;;;;;;7.72;3.30;;;10.50;99.90;;;;;;4955741;29;20244;-86
2022/04/21 08:46:25;;;;;;;8.20;3.67;;;10.60;99.90;;;;;;4954618;29;20264;-84
2022/04/21 08:48:52;;;;;;;7.17;3.77;;;10.70;99.90;;;;;;4952218;29;20194;-82
2022/04/21 08:51:19;;;;;;;7.60;2.93;;;10.70;99.90;;;;;;4956435;28;20205;-83
2022/04/21 08:53:45;;;;;;;7.37;3.13;;;10.70;99.90;;;;;;4955210;28;20196;-84
2022/04/21 08:56:12;;;;;;;10.07;3.63;;;10.50;99.90;;;;;;4954839;29;20185;-83
2022/04/21 08:58:38;;;;;;;5.27;3.00;;;10.50;99.90;;;;;;4956472;28;20174;-83
2022/04/21 09:01:03;;;;;;;6.70;3.10;;;10.40;99.90;;;;;;4954851;28;20664;-81
2022/04/21 09:03:33;;;;;;;6.73;3.20;;;10.40;99.90;;;;;;4954782;29;20208;-84
2022/04/21 09:05:59;;;;;;;6.83;3.30;;;10.30;99.90;;;;;;4955022;29;20189;-82
2022/04/21 09:08:28;;;;;;;7.57;3.60;;;10.30;99.90;;;;;;4943670;29;20625;-84
2022/04/21 09:11:05;;;;;;;5.80;3.20;;;10.40;99.90;;;;;;4952474;29;20189;-83
2022/04/21 09:13:38;;;;;;;6.63;3.20;;;10.40;99.90;;;;;;4954288;28;20195;-84
2022/04/21 09:16:06;;;;;;;6.30;3.13;;;10.40;99.90;;;;;;4954315;29;20199;-84
2022/04/21 09:18:44;;;;;;;8.23;3.10;;;10.50;99.90;;;;;;4954296;28;20185;-82
2022/04/21 09:21:15;;;;;;;7.40;3.57;;;10.50;99.90;;;;;;4939760;29;20672;-83
2022/04/21 09:23:44;;;;;;;5.30;3.33;;;10.50;99.90;;;;;;4947464;29;20735;-84
2022/04/21 09:26:13;;;;;;;5.07;3.00;;;10.50;99.90;;;;;;4935681;29;20291;-82
2022/04/21 09:28:39;;;;;;;5.53;3.30;;;10.50;99.90;;;;;;4936997;29;20498;-85
2022/04/21 09:31:07;;;;;;;7.25;3.80;;;10.50;99.90;;;;;;4952380;29;20269;-84
2022/04/21 09:33:40;;;;;;;6.77;3.87;;;10.50;99.90;;;;;;4954606;29;20189;-84
2022/04/21 09:36:07;;;;;;;7.85;3.70;;;10.50;99.90;;;;;;4954709;29;20205;-86
2022/04/21 09:38:37;;;;;;;9.97;3.80;;;10.50;99.90;;;;;;4955728;28;20184;-85
2022/04/21 09:41:10;;;;;;;5.83;3.43;;;10.50;99.90;;;;;;4950052;28;20178;-85
2022/04/21 09:43:41;;;;;;;6.97;3.63;;;10.60;99.90;;;;;;4937799;29;20507;-85
2022/04/21 09:46:21;;;;;;;7.90;3.50;;;10.70;99.90;;;;;;4934987;29;20174;-85
2022/04/21 09:48:53;;;;;;;6.27;3.20;;;10.80;99.90;;;;;;4935679;29;20195;-85
2022/04/21 09:51:24;;;;;;;6.65;3.30;;;10.80;99.90;;;;;;4955722;29;20166;-85
2022/04/21 09:53:57;;;;;;;8.50;3.38;;;11.00;99.90;;;;;;4952095;29;20173;-84
2022/04/21 09:56:30;;;;;;;4.32;3.17;;;11.00;99.90;;;;;;4948042;29;20494;-83
2022/04/21 09:58:57;;;;;;;5.22;3.30;;;11.10;99.90;;;;;;4954117;29;20181;-82
2022/04/21 10:01:22;;;;;;;7.13;3.40;;;11.10;99.90;;;;;;4955157;28;20195;-83
2022/04/21 10:03:49;;;;;;;5.50;3.45;;;11.10;99.90;;;;;;4955901;28;20260;-84
2022/04/21 10:06:16;;;;;;;6.15;3.20;;;11.10;99.90;;;;;;4955870;28;20186;-83
2022/04/21 10:08:43;;;;;;;7.20;3.63;;;11.20;99.90;;;;;;4954799;29;20188;-87
2022/04/21 10:11:09;;;;;;;6.85;3.13;;;11.20;99.90;;;;;;4954777;29;20188;-85
2022/04/21 10:13:36;;;;;;;10.60;3.25;;;11.10;99.90;;;;;;4954619;29;20181;-87
2022/04/21 10:16:02;;;;;;;6.82;3.58;;;11.20;99.90;;;;;;4944558;28;20174;-87
2022/04/21 10:18:28;;;;;;;5.63;3.45;;;11.20;99.90;;;;;;4935317;29;20637;-85
2022/04/21 10:20:55;;;;;;;5.07;3.53;;;11.20;99.90;;;;;;4936517;29;20226;-83
2022/04/21 10:23:22;;;;;;;9.07;3.58;;;11.20;99.90;;;;;;4935163;29;20220;-85
2022/04/21 10:26:01;;;;;;;4.97;3.10;;;11.20;99.90;;;;;;4935603;29;20636;-84
2022/04/21 10:28:39;;;;;;;6.55;3.30;;;11.20;99.90;;;;;;4935106;29;20178;-82
2022/04/21 10:31:30;;;;;;;5.15;3.10;;;11.30;99.90;;;;;;4945180;29;20231;-83
2022/04/21 10:34:01;;;;;;;6.50;3.25;;;11.30;99.90;;;;;;4957635;29;20520;-86
2022/04/21 10:36:36;;;;;;;8.60;3.95;;;11.30;99.90;;;;;;4957909;29;20526;-83
2022/04/21 10:39:16;;;;;;;10.52;4.70;;;11.20;99.90;;;;;;4959017;29;20165;-83
2022/04/21 10:41:42;;;;;;;10.15;5.07;;;11.30;99.90;;;;;;4957388;29;20181;-85
2022/04/21 10:44:28;;;;;;;7.00;3.28;;;11.30;99.90;;;;;;4957507;29;20574;-86
2022/04/21 10:47:35;;;;;;;13.05;5.40;;;11.40;99.90;;;;;;4956710;29;20509;-86
2022/04/21 10:50:10;;;;;;;8.48;3.42;;;11.40;99.90;;;;;;4957436;29;20234;-83
2022/04/21 10:57:48;;;;;;;6.93;3.70;;;11.50;99.90;;;;;;4958500;29;20203;-83
2022/04/21 11:00:29;;;;;;;7.35;3.33;;;11.60;99.90;;;;;;4949604;29;20182;-84
2022/04/21 11:03:08;;;;;;;5.18;3.25;;;11.60;99.90;;;;;;4956385;28;20647;-83
2022/04/21 11:05:38;;;;;;;5.43;3.22;;;11.70;99.90;;;;;;4956994;29;20185;-82
2022/04/21 11:08:12;;;;;;;8.63;3.00;;;11.80;99.90;;;;;;4957446;28;20688;-84
2022/04/21 11:10:38;;;;;;;7.00;3.47;;;11.80;99.90;;;;;;4958245;28;20183;-84
2022/04/21 11:13:17;;;;;;;6.80;3.90;;;11.80;99.90;;;;;;4957053;28;20272;-84
2022/04/21 11:15:49;;;;;;;6.75;3.50;;;11.80;99.90;;;;;;4956589;28;20181;-85
2022/04/21 11:18:20;;;;;;;7.93;3.95;;;11.80;99.90;;;;;;4956922;28;20512;-85
2022/04/21 11:20:47;;;;;;;7.13;4.03;;;11.80;99.90;;;;;;4956988;28;20328;-86
2022/04/21 11:23:24;;;;;;;6.38;3.65;;;11.80;99.90;;;;;;4957098;28;20212;-83
2022/04/21 11:26:02;;;;;;;6.32;3.25;;;11.90;99.90;;;;;;4957105;29;20177;-85
2022/04/21 11:28:28;;;;;;;10.48;3.78;;;11.90;99.90;;;;;;4957333;29;20226;-84
2022/04/21 11:30:58;;;;;;;10.95;3.50;;;11.90;99.90;;;;;;4958529;28;20558;-87
2022/04/21 11:33:24;;;;;;;29.10;6.40;;;11.90;99.90;;;;;;4956651;29;20272;-85
2022/04/21 11:35:49;;;;;;;18.20;3.90;;;12.00;99.90;;;;;;4956970;29;20271;-86
2022/04/21 11:38:15;;;;;;;8.50;3.17;;;12.00;99.90;;;;;;4957237;29;20185;-88
2022/04/21 11:40:41;;;;;;;22.33;4.07;;;12.10;99.90;;;;;;4954332;28;20185;-88
2022/04/21 11:43:18;;;;;;;11.10;4.00;;;12.20;99.90;;;;;;4956546;29;20240;-88
2022/04/21 11:45:56;;;;;;;10.20;3.60;;;12.30;99.90;;;;;;4956501;29;20239;-88
2022/04/21 11:48:37;;;;;;;12.73;3.70;;;12.30;99.90;;;;;;4956126;29;20695;-86
2022/04/21 11:51:04;;;;;;;5.95;3.45;;;12.30;99.90;;;;;;4957721;28;20372;-87
2022/04/21 11:53:41;;;;;;;15.77;4.00;;;12.40;99.90;;;;;;4955817;29;20177;-84
2022/04/21 11:56:09;;;;;;;5.68;3.38;;;12.40;99.90;;;;;;4957622;28;20181;-86
2022/04/21 11:58:36;;;;;;;9.57;3.47;;;12.50;99.90;;;;;;4956128;28;20570;-87
2022/04/21 12:06:50;;;;;;;5.90;3.35;;;12.50;99.90;;;;;;4957473;29;20173;-83
2022/04/21 12:09:17;;;;;;;6.57;3.08;;;12.50;99.90;;;;;;4957286;28;20184;-84
2022/04/21 12:11:50;;;;;;;6.88;3.50;;;12.40;99.90;;;;;;4957067;28;20561;-84
2022/04/21 12:14:17;;;;;;;6.15;3.53;;;12.40;99.90;;;;;;4956101;29;20169;-84
2022/04/21 12:16:53;;;;;;;7.78;3.55;;;12.50;99.90;;;;;;4956723;28;20174;-84
2022/04/21 12:19:33;;;;;;;4.55;3.08;;;12.60;99.90;;;;;;4957026;28;20474;-85
2022/04/21 12:22:06;;;;;;;8.18;4.03;;;12.50;99.90;;;;;;4953828;29;20209;-83
2022/04/21 12:24:35;;;;;;;5.22;3.35;;;12.50;99.90;;;;;;4955637;29;20288;-85
2022/04/21 12:27:03;;;;;;;6.75;3.47;;;12.50;99.90;;;;;;4952361;29;20173;-82
2022/04/21 12:29:31;;;;;;;6.60;3.90;;;12.40;99.90;;;;;;4956697;28;20628;-84
2022/04/21 12:32:01;;;;;;;10.60;3.20;;;12.40;99.90;;;;;;4956474;28;20181;-85
2022/04/21 12:34:33;;;;;;;8.02;3.40;;;12.40;99.90;;;;;;4952544;28;20169;-84
2022/04/21 12:37:01;;;;;;;7.93;3.72;;;12.40;99.90;;;;;;4936293;29;20528;-84
2022/04/21 12:39:28;;;;;;;7.35;3.80;;;12.40;99.90;;;;;;4936188;29;20178;-83
2022/04/21 12:41:56;;;;;;;7.85;3.60;;;12.40;99.90;;;;;;4936194;29;20205;-84
2022/04/21 12:44:25;;;;;;;5.50;3.80;;;12.40;99.90;;;;;;4936138;29;20709;-83
2022/04/21 12:47:18;;;;;;;5.88;3.65;;;12.40;99.90;;;;;;4935900;29;20190;-83
2022/04/21 12:50:08;;;;;;;7.90;3.58;;;12.50;99.90;;;;;;4933708;29;20217;-85
2022/04/21 12:52:34;;;;;;;6.68;3.47;;;12.50;99.90;;;;;;4934467;29;20179;-84
2022/04/21 12:55:00;;;;;;;8.38;3.58;;;12.50;99.90;;;;;;4944686;29;20224;-84
2022/04/21 12:57:27;;;;;;;8.52;3.85;;;12.60;99.90;;;;;;4938503;29;20190;-84
2022/04/21 12:59:54;;;;;;;8.25;3.90;;;12.50;99.90;;;;;;4937144;29;20170;-85
2022/04/21 13:02:20;;;;;;;9.18;3.70;;;12.50;99.90;;;;;;4953037;29;20216;-86
2022/04/21 13:04:46;;;;;;;5.93;3.63;;;12.50;99.90;;;;;;4955375;29;20212;-87
2022/04/21 13:07:12;;;;;;;7.65;3.50;;;12.50;99.90;;;;;;4956530;28;20173;-84
2022/04/21 13:09:38;;;;;;;8.10;3.40;;;12.50;99.90;;;;;;4956228;28;20169;-85
2022/04/21 13:12:05;;;;;;;8.18;3.50;;;12.50;99.90;;;;;;4955091;29;20178;-85
2022/04/21 13:14:31;;;;;;;10.93;3.97;;;12.50;99.90;;;;;;4954965;29;20189;-87
2022/04/21 13:16:57;;;;;;;10.90;3.55;;;12.50;99.90;;;;;;4954263;29;20667;-84
2022/04/21 13:19:23;;;;;;;7.72;3.70;;;12.60;99.90;;;;;;4956354;28;20290;-85
2022/04/21 13:21:52;;;;;;;13.88;3.53;;;12.60;99.90;;;;;;4954472;29;20264;-87
2022/04/21 13:24:21;;;;;;;5.85;3.40;;;12.70;99.90;;;;;;4955286;29;20197;-88
2022/04/21 13:26:47;;;;;;;9.57;3.65;;;12.90;99.90;;;;;;4954999;29;20587;-89
2022/04/21 13:29:13;;;;;;;7.18;3.38;;;12.80;99.90;;;;;;4954542;29;20585;-87
2022/04/21 13:34:23;;;;;;;7.05;3.53;;;12.90;99.90;;;;;;4953066;29;20273;-86
2022/04/21 13:36:48;;;;;;;4.35;2.75;;;12.80;99.90;;;;;;4952285;29;20220;-83
2022/04/21 13:39:15;;;;;;;6.68;3.45;;;12.80;99.90;;;;;;4943779;28;20249;-89
2022/04/21 13:41:41;;;;;;;4.97;3.17;;;12.90;99.90;;;;;;4935560;29;20225;-87
2022/04/21 13:44:08;;;;;;;7.07;3.20;;;12.90;99.90;;;;;;4935811;29;20625;-86
2022/04/21 13:46:36;;;;;;;9.13;3.40;;;13.00;99.90;;;;;;4935933;29;20261;-87
2022/04/21 13:49:03;;;;;;;4.97;3.20;;;13.00;99.90;;;;;;4936345;29;20213;-85